Pagrindinis puslapis
METAR-TAF:

METAR-TAF

Oro uostai :

Magadanas, Rusija

platuma: 59-33N, ilguma: 150-47E, Aukštis: 118 m

Dabartinis oras

Ataskaita buvo paskelbta 1 valandą ir 14 minutes, ne 12:00 UTC
Ramus vėjas
Temperatūra -31°C
Drėgmė 82%
Slėgis 1014 hPa
Matomumas 10 km arba daugiau

METAR: UHMM 251200Z 00000MPS 9999 NSC M31/M33 Q1014 RMK QFE746

Laikas: 00:14 (13:14 UTC)

Prognozė

Ataskaita buvo paskelbta 2 valandos ir 24 minutes, ne 10:50 UTC
Prognozė galioja nuo 25 metu 12 UTC su 26 metu 18 UTC
Vėjas 6 kt iš Šiaurės/Šiaurės Rytų su gūsio iki 16 kt
Matomumas 10 km arba daugiau

TAF: UHMM 251050Z 2512/2618 02003G08MPS 9999 NSC

Orai ataskaitas ir orų prognozės (METAR, TAF).

turimą stotys yra geltonos ir raudonos taškus žemėlapyje.

Perkelti pele per norėdami pamatyti stoties vardą.

Tada spustelėkite, norėdami matyti oro stebėjimo ir prognozės.

Norėdami pakeisti žemėlapį: spustelėkite ant žalios mygtukų su juodo kryžiaus žemyn,; žalią mygtuką su brūkšneliu, jei norite nutolinti; arba žalių rodyklių gretimoms žemėlapius.


METAR-TAF: